sensor_id;sensor_type;location;lat;lon;timestamp;P1;durP1;ratioP1;P2;durP2;ratioP2
79751;SDS011;69234;47.446;21.636;2023-04-25T00:00:24;30.93;;;30.93;;
79751;SDS011;69234;47.446;21.636;2023-04-25T00:00:55;30.53;;;30.53;;
79751;SDS011;69234;47.446;21.636;2023-04-25T00:01:26;31.27;;;31.13;;
79751;SDS011;69234;47.446;21.636;2023-04-25T00:01:57;30.37;;;30.33;;
79751;SDS011;69234;47.446;21.636;2023-04-25T00:02:29;30.73;;;30.73;;
79751;SDS011;69234;47.446;21.636;2023-04-25T00:03:01;30.63;;;30.60;;
79751;SDS011;69234;47.446;21.636;2023-04-25T00:03:33;30.67;;;30.57;;
79751;SDS011;69234;47.446;21.636;2023-04-25T00:04:05;30.23;;;30.23;;
79751;SDS011;69234;47.446;21.636;2023-04-25T00:04:36;30.23;;;30.23;;
79751;SDS011;69234;47.446;21.636;2023-04-25T00:05:08;31.13;;;31.13;;
79751;SDS011;69234;47.446;21.636;2023-04-25T00:05:39;31.80;;;31.80;;
79751;SDS011;69234;47.446;21.636;2023-04-25T00:06:10;31.10;;;31.10;;
79751;SDS011;69234;47.446;21.636;2023-04-25T00:06:41;32.00;;;32.00;;
79751;SDS011;69234;47.446;21.636;2023-04-25T00:07:12;32.40;;;32.40;;
79751;SDS011;69234;47.446;21.636;2023-04-25T00:07:42;31.77;;;31.77;;
79751;SDS011;69234;47.446;21.636;2023-04-25T00:08:13;30.80;;;30.80;;
79751;SDS011;69234;47.446;21.636;2023-04-25T00:08:44;31.67;;;31.63;;
79751;SDS011;69234;47.446;21.636;2023-04-25T00:09:14;31.37;;;31.37;;
79751;SDS011;69234;47.446;21.636;2023-04-25T00:09:45;32.90;;;32.27;;
79751;SDS011;69234;47.446;21.636;2023-04-25T00:10:16;30.77;;;30.73;;
79751;SDS011;69234;47.446;21.636;2023-04-25T00:10:47;31.47;;;31.47;;
79751;SDS011;69234;47.446;21.636;2023-04-25T00:11:18;31.37;;;31.17;;
79751;SDS011;69234;47.446;21.636;2023-04-25T00:11:49;31.13;;;31.13;;
79751;SDS011;69234;47.446;21.636;2023-04-25T00:12:20;32.23;;;32.23;;
79751;SDS011;69234;47.446;21.636;2023-04-25T00:12:52;33.07;;;32.73;;
79751;SDS011;69234;47.446;21.636;2023-04-25T00:13:23;33.20;;;33.17;;
79751;SDS011;69234;47.446;21.636;2023-04-25T00:13:55;32.37;;;32.33;;
79751;SDS011;69234;47.446;21.636;2023-04-25T00:14:27;32.30;;;32.23;;
79751;SDS011;69234;47.446;21.636;2023-04-25T00:14:58;33.77;;;32.97;;
79751;SDS011;69234;47.446;21.636;2023-04-25T00:15:30;31.83;;;31.77;;
79751;SDS011;69234;47.446;21.636;2023-04-25T00:16:00;31.37;;;31.33;;
79751;SDS011;69234;47.446;21.636;2023-04-25T00:16:33;31.83;;;31.83;;
79751;SDS011;69234;47.446;21.636;2023-04-25T00:17:04;32.17;;;32.03;;
79751;SDS011;69234;47.446;21.636;2023-04-25T00:17:35;30.80;;;30.77;;
79751;SDS011;69234;47.446;21.636;2023-04-25T00:18:08;31.00;;;31.00;;
79751;SDS011;69234;47.446;21.636;2023-04-25T00:18:39;31.87;;;31.87;;
79751;SDS011;69234;47.446;21.636;2023-04-25T00:19:09;32.03;;;32.00;;
79751;SDS011;69234;47.446;21.636;2023-04-25T00:19:40;33.07;;;32.83;;
79751;SDS011;69234;47.446;21.636;2023-04-25T00:20:11;33.60;;;32.70;;
79751;SDS011;69234;47.446;21.636;2023-04-25T00:20:42;31.73;;;31.70;;
79751;SDS011;69234;47.446;21.636;2023-04-25T00:21:17;30.93;;;30.93;;
79751;SDS011;69234;47.446;21.636;2023-04-25T00:21:49;32.03;;;32.03;;
79751;SDS011;69234;47.446;21.636;2023-04-25T00:22:20;31.53;;;31.53;;
79751;SDS011;69234;47.446;21.636;2023-04-25T00:22:51;30.13;;;30.13;;
79751;SDS011;69234;47.446;21.636;2023-04-25T00:23:23;31.80;;;31.70;;
79751;SDS011;69234;47.446;21.636;2023-04-25T00:23:54;32.43;;;32.43;;
79751;SDS011;69234;47.446;21.636;2023-04-25T00:24:26;32.07;;;32.07;;
79751;SDS011;69234;47.446;21.636;2023-04-25T00:24:56;31.77;;;31.77;;
79751;SDS011;69234;47.446;21.636;2023-04-25T00:25:30;31.37;;;31.37;;
79751;SDS011;69234;47.446;21.636;2023-04-25T00:26:00;32.37;;;32.37;;
79751;SDS011;69234;47.446;21.636;2023-04-25T00:26:33;32.23;;;32.23;;
79751;SDS011;69234;47.446;21.636;2023-04-25T00:27:06;32.77;;;32.77;;
79751;SDS011;69234;47.446;21.636;2023-04-25T00:27:36;31.70;;;31.70;;
79751;SDS011;69234;47.446;21.636;2023-04-25T00:28:09;30.67;;;30.67;;
79751;SDS011;69234;47.446;21.636;2023-04-25T00:28:40;31.27;;;31.27;;
79751;SDS011;69234;47.446;21.636;2023-04-25T00:29:11;32.03;;;32.03;;
79751;SDS011;69234;47.446;21.636;2023-04-25T00:29:42;32.67;;;32.67;;
79751;SDS011;69234;47.446;21.636;2023-04-25T00:30:13;32.37;;;32.37;;
79751;SDS011;69234;47.446;21.636;2023-04-25T00:30:44;30.27;;;30.27;;
79751;SDS011;69234;47.446;21.636;2023-04-25T00:31:15;30.77;;;30.77;;
79751;SDS011;69234;47.446;21.636;2023-04-25T00:31:46;31.57;;;31.50;;
79751;SDS011;69234;47.446;21.636;2023-04-25T00:32:17;32.07;;;32.07;;
79751;SDS011;69234;47.446;21.636;2023-04-25T00:32:47;32.77;;;32.03;;
79751;SDS011;69234;47.446;21.636;2023-04-25T00:33:18;31.20;;;31.13;;
79751;SDS011;69234;47.446;21.636;2023-04-25T00:33:49;30.77;;;30.67;;
79751;SDS011;69234;47.446;21.636;2023-04-25T00:34:20;31.40;;;31.40;;
79751;SDS011;69234;47.446;21.636;2023-04-25T00:34:51;31.20;;;30.93;;
79751;SDS011;69234;47.446;21.636;2023-04-25T00:35:21;31.73;;;31.37;;
79751;SDS011;69234;47.446;21.636;2023-04-25T00:35:52;31.50;;;31.43;;
79751;SDS011;69234;47.446;21.636;2023-04-25T00:36:23;31.80;;;31.80;;
79751;SDS011;69234;47.446;21.636;2023-04-25T00:36:54;32.67;;;32.57;;
79751;SDS011;69234;47.446;21.636;2023-04-25T00:37:25;32.30;;;32.23;;
79751;SDS011;69234;47.446;21.636;2023-04-25T00:37:56;31.50;;;31.17;;
79751;SDS011;69234;47.446;21.636;2023-04-25T00:38:26;32.37;;;31.73;;
79751;SDS011;69234;47.446;21.636;2023-04-25T00:38:57;30.93;;;30.93;;
79751;SDS011;69234;47.446;21.636;2023-04-25T00:39:28;30.40;;;30.33;;
79751;SDS011;69234;47.446;21.636;2023-04-25T00:39:59;31.03;;;30.77;;
79751;SDS011;69234;47.446;21.636;2023-04-25T00:40:30;31.00;;;30.97;;
79751;SDS011;69234;47.446;21.636;2023-04-25T00:41:00;32.03;;;31.90;;
79751;SDS011;69234;47.446;21.636;2023-04-25T00:41:31;31.77;;;31.77;;
79751;SDS011;69234;47.446;21.636;2023-04-25T00:42:03;31.10;;;31.10;;
79751;SDS011;69234;47.446;21.636;2023-04-25T00:42:35;30.60;;;30.60;;
79751;SDS011;69234;47.446;21.636;2023-04-25T00:43:07;30.20;;;30.20;;
79751;SDS011;69234;47.446;21.636;2023-04-25T00:43:38;31.07;;;31.07;;
79751;SDS011;69234;47.446;21.636;2023-04-25T00:44:11;31.20;;;31.03;;
79751;SDS011;69234;47.446;21.636;2023-04-25T00:44:42;29.33;;;29.33;;
79751;SDS011;69234;47.446;21.636;2023-04-25T00:45:15;30.27;;;30.27;;
79751;SDS011;69234;47.446;21.636;2023-04-25T00:45:46;32.03;;;32.03;;
79751;SDS011;69234;47.446;21.636;2023-04-25T00:46:20;31.37;;;31.37;;
79751;SDS011;69234;47.446;21.636;2023-04-25T00:46:51;33.47;;;32.77;;
79751;SDS011;69234;47.446;21.636;2023-04-25T00:48:14;31.23;;;31.03;;
79751;SDS011;69234;47.446;21.636;2023-04-25T00:48:45;32.27;;;32.23;;
79751;SDS011;69234;47.446;21.636;2023-04-25T00:49:16;31.47;;;31.47;;
79751;SDS011;69234;47.446;21.636;2023-04-25T00:49:47;31.83;;;31.83;;
79751;SDS011;69234;47.446;21.636;2023-04-25T00:50:17;31.67;;;31.67;;
79751;SDS011;69234;47.446;21.636;2023-04-25T00:50:52;31.07;;;31.03;;
79751;SDS011;69234;47.446;21.636;2023-04-25T00:51:25;30.60;;;30.60;;
79751;SDS011;69234;47.446;21.636;2023-04-25T00:51:58;30.47;;;30.47;;
79751;SDS011;69234;47.446;21.636;2023-04-25T00:52:29;31.17;;;31.17;;
79751;SDS011;69234;47.446;21.636;2023-04-25T00:53:00;31.17;;;31.17;;
79751;SDS011;69234;47.446;21.636;2023-04-25T00:53:31;31.17;;;31.17;;
79751;SDS011;69234;47.446;21.636;2023-04-25T00:54:03;31.67;;;31.67;;
79751;SDS011;69234;47.446;21.636;2023-04-25T00:54:34;32.07;;;32.07;;
79751;SDS011;69234;47.446;21.636;2023-04-25T00:55:05;31.27;;;31.27;;
79751;SDS011;69234;47.446;21.636;2023-04-25T00:55:36;30.50;;;30.47;;
79751;SDS011;69234;47.446;21.636;2023-04-25T00:56:07;31.40;;;31.00;;
79751;SDS011;69234;47.446;21.636;2023-04-25T00:56:38;32.73;;;31.60;;
79751;SDS011;69234;47.446;21.636;2023-04-25T00:57:09;31.03;;;30.93;;
79751;SDS011;69234;47.446;21.636;2023-04-25T00:57:40;31.83;;;31.70;;
79751;SDS011;69234;47.446;21.636;2023-04-25T00:58:12;31.67;;;31.53;;
79751;SDS011;69234;47.446;21.636;2023-04-25T00:58:44;31.33;;;31.33;;
79751;SDS011;69234;47.446;21.636;2023-04-25T00:59:15;30.70;;;30.33;;
79751;SDS011;69234;47.446;21.636;2023-04-25T00:59:47;35.20;;;33.67;;
79751;SDS011;69234;47.446;21.636;2023-04-25T01:00:20;33.43;;;32.87;;
79751;SDS011;69234;47.446;21.636;2023-04-25T01:00:51;32.77;;;32.50;;
79751;SDS011;69234;47.446;21.636;2023-04-25T01:01:23;32.57;;;32.57;;
79751;SDS011;69234;47.446;21.636;2023-04-25T01:01:53;32.77;;;32.77;;
79751;SDS011;69234;47.446;21.636;2023-04-25T01:02:25;31.00;;;31.00;;
79751;SDS011;69234;47.446;21.636;2023-04-25T01:02:57;32.13;;;32.13;;
79751;SDS011;69234;47.446;21.636;2023-04-25T01:03:28;32.40;;;32.40;;
79751;SDS011;69234;47.446;21.636;2023-04-25T01:04:10;32.30;;;32.30;;
79751;SDS011;69234;47.446;21.636;2023-04-25T01:04:41;32.07;;;32.07;;
79751;SDS011;69234;47.446;21.636;2023-04-25T01:05:12;32.50;;;32.43;;
79751;SDS011;69234;47.446;21.636;2023-04-25T01:05:43;31.57;;;31.37;;
79751;SDS011;69234;47.446;21.636;2023-04-25T01:06:14;32.43;;;32.43;;
79751;SDS011;69234;47.446;21.636;2023-04-25T01:06:47;31.47;;;31.47;;
79751;SDS011;69234;47.446;21.636;2023-04-25T01:07:19;32.83;;;32.83;;
79751;SDS011;69234;47.446;21.636;2023-04-25T01:07:51;32.90;;;32.90;;
79751;SDS011;69234;47.446;21.636;2023-04-25T01:08:23;32.97;;;32.97;;
79751;SDS011;69234;47.446;21.636;2023-04-25T01:08:57;31.97;;;31.97;;
79751;SDS011;69234;47.446;21.636;2023-04-25T01:09:29;33.03;;;33.03;;
79751;SDS011;69234;47.446;21.636;2023-04-25T01:10:02;32.17;;;32.17;;
79751;SDS011;69234;47.446;21.636;2023-04-25T01:10:34;32.07;;;32.07;;
79751;SDS011;69234;47.446;21.636;2023-04-25T01:11:05;32.23;;;32.23;;
79751;SDS011;69234;47.446;21.636;2023-04-25T01:11:36;34.53;;;34.53;;
79751;SDS011;69234;47.446;21.636;2023-04-25T01:12:07;33.07;;;32.83;;
79751;SDS011;69234;47.446;21.636;2023-04-25T01:12:39;33.23;;;32.67;;
79751;SDS011;69234;47.446;21.636;2023-04-25T01:13:10;32.17;;;31.73;;
79751;SDS011;69234;47.446;21.636;2023-04-25T01:13:40;31.93;;;31.77;;
79751;SDS011;69234;47.446;21.636;2023-04-25T01:14:11;31.07;;;31.00;;
79751;SDS011;69234;47.446;21.636;2023-04-25T01:14:42;31.60;;;31.60;;
79751;SDS011;69234;47.446;21.636;2023-04-25T01:15:13;32.20;;;32.20;;
79751;SDS011;69234;47.446;21.636;2023-04-25T01:15:44;32.47;;;32.47;;
79751;SDS011;69234;47.446;21.636;2023-04-25T01:16:14;32.17;;;32.03;;
79751;SDS011;69234;47.446;21.636;2023-04-25T01:16:45;32.43;;;32.43;;
79751;SDS011;69234;47.446;21.636;2023-04-25T01:17:17;32.53;;;32.30;;
79751;SDS011;69234;47.446;21.636;2023-04-25T01:17:49;32.70;;;32.50;;
79751;SDS011;69234;47.446;21.636;2023-04-25T01:18:20;32.47;;;32.43;;
79751;SDS011;69234;47.446;21.636;2023-04-25T01:18:50;32.50;;;32.50;;
79751;SDS011;69234;47.446;21.636;2023-04-25T01:19:21;33.00;;;32.80;;
79751;SDS011;69234;47.446;21.636;2023-04-25T01:19:54;32.77;;;32.60;;
79751;SDS011;69234;47.446;21.636;2023-04-25T01:20:25;35.73;;;34.43;;
79751;SDS011;69234;47.446;21.636;2023-04-25T01:21:16;33.80;;;33.43;;
79751;SDS011;69234;47.446;21.636;2023-04-25T01:21:48;31.83;;;31.37;;
79751;SDS011;69234;47.446;21.636;2023-04-25T01:22:19;31.77;;;31.63;;
79751;SDS011;69234;47.446;21.636;2023-04-25T01:22:51;32.67;;;32.67;;
79751;SDS011;69234;47.446;21.636;2023-04-25T01:23:23;31.77;;;31.77;;
79751;SDS011;69234;47.446;21.636;2023-04-25T01:23:55;31.13;;;31.13;;
79751;SDS011;69234;47.446;21.636;2023-04-25T01:24:27;30.83;;;30.73;;
79751;SDS011;69234;47.446;21.636;2023-04-25T01:24:59;31.20;;;31.17;;
79751;SDS011;69234;47.446;21.636;2023-04-25T01:25:31;30.77;;;30.77;;
79751;SDS011;69234;47.446;21.636;2023-04-25T01:26:02;29.77;;;29.77;;
79751;SDS011;69234;47.446;21.636;2023-04-25T01:26:34;29.93;;;29.93;;
79751;SDS011;69234;47.446;21.636;2023-04-25T01:27:06;30.37;;;30.37;;
79751;SDS011;69234;47.446;21.636;2023-04-25T01:27:37;32.60;;;32.40;;
79751;SDS011;69234;47.446;21.636;2023-04-25T01:28:08;31.77;;;31.57;;
79751;SDS011;69234;47.446;21.636;2023-04-25T01:28:39;31.77;;;31.70;;
79751;SDS011;69234;47.446;21.636;2023-04-25T01:29:18;30.47;;;30.47;;
79751;SDS011;69234;47.446;21.636;2023-04-25T01:29:50;30.87;;;30.87;;
79751;SDS011;69234;47.446;21.636;2023-04-25T01:30:22;29.70;;;29.70;;
79751;SDS011;69234;47.446;21.636;2023-04-25T01:30:53;30.93;;;30.93;;
79751;SDS011;69234;47.446;21.636;2023-04-25T01:31:25;30.77;;;30.70;;
79751;SDS011;69234;47.446;21.636;2023-04-25T01:31:57;30.40;;;30.40;;
79751;SDS011;69234;47.446;21.636;2023-04-25T01:32:30;31.87;;;31.30;;
79751;SDS011;69234;47.446;21.636;2023-04-25T01:33:08;30.30;;;30.20;;
79751;SDS011;69234;47.446;21.636;2023-04-25T01:33:40;30.80;;;30.80;;
79751;SDS011;69234;47.446;21.636;2023-04-25T01:34:11;30.10;;;29.77;;
79751;SDS011;69234;47.446;21.636;2023-04-25T01:34:43;30.83;;;30.77;;
79751;SDS011;69234;47.446;21.636;2023-04-25T01:35:13;29.97;;;29.90;;
79751;SDS011;69234;47.446;21.636;2023-04-25T01:35:45;30.07;;;30.07;;
79751;SDS011;69234;47.446;21.636;2023-04-25T01:36:17;29.83;;;29.80;;
79751;SDS011;69234;47.446;21.636;2023-04-25T01:36:48;30.63;;;30.63;;
79751;SDS011;69234;47.446;21.636;2023-04-25T01:37:20;30.53;;;30.53;;
79751;SDS011;69234;47.446;21.636;2023-04-25T01:37:51;31.10;;;31.07;;
79751;SDS011;69234;47.446;21.636;2023-04-25T01:38:22;31.10;;;31.07;;
79751;SDS011;69234;47.446;21.636;2023-04-25T01:38:53;30.40;;;30.30;;
79751;SDS011;69234;47.446;21.636;2023-04-25T01:39:26;30.17;;;30.03;;
79751;SDS011;69234;47.446;21.636;2023-04-25T01:39:56;31.00;;;30.80;;
79751;SDS011;69234;47.446;21.636;2023-04-25T01:40:27;32.77;;;32.77;;
79751;SDS011;69234;47.446;21.636;2023-04-25T01:40:58;33.27;;;32.50;;
79751;SDS011;69234;47.446;21.636;2023-04-25T01:41:29;31.07;;;30.57;;
79751;SDS011;69234;47.446;21.636;2023-04-25T01:42:00;30.93;;;30.80;;
79751;SDS011;69234;47.446;21.636;2023-04-25T01:42:32;30.93;;;30.83;;
79751;SDS011;69234;47.446;21.636;2023-04-25T01:43:04;30.37;;;30.03;;
79751;SDS011;69234;47.446;21.636;2023-04-25T01:43:35;30.10;;;30.10;;
79751;SDS011;69234;47.446;21.636;2023-04-25T01:44:06;30.93;;;30.93;;
79751;SDS011;69234;47.446;21.636;2023-04-25T01:44:36;31.23;;;31.10;;
79751;SDS011;69234;47.446;21.636;2023-04-25T01:45:09;30.63;;;30.47;;
79751;SDS011;69234;47.446;21.636;2023-04-25T01:45:41;32.50;;;31.93;;
79751;SDS011;69234;47.446;21.636;2023-04-25T01:46:14;31.23;;;31.10;;
79751;SDS011;69234;47.446;21.636;2023-04-25T01:46:45;31.03;;;31.00;;
79751;SDS011;69234;47.446;21.636;2023-04-25T01:47:16;30.10;;;30.10;;
79751;SDS011;69234;47.446;21.636;2023-04-25T01:47:47;31.43;;;31.37;;
79751;SDS011;69234;47.446;21.636;2023-04-25T01:48:19;30.13;;;29.97;;
79751;SDS011;69234;47.446;21.636;2023-04-25T01:48:51;31.50;;;30.83;;
79751;SDS011;69234;47.446;21.636;2023-04-25T01:49:22;32.20;;;31.83;;
79751;SDS011;69234;47.446;21.636;2023-04-25T01:49:54;30.20;;;30.20;;
79751;SDS011;69234;47.446;21.636;2023-04-25T01:50:25;30.33;;;30.33;;
79751;SDS011;69234;47.446;21.636;2023-04-25T01:50:56;29.47;;;29.47;;
79751;SDS011;69234;47.446;21.636;2023-04-25T01:51:27;30.23;;;30.23;;
79751;SDS011;69234;47.446;21.636;2023-04-25T01:51:58;31.17;;;31.17;;
79751;SDS011;69234;47.446;21.636;2023-04-25T01:52:29;29.87;;;29.87;;
79751;SDS011;69234;47.446;21.636;2023-04-25T01:53:01;30.87;;;30.73;;
79751;SDS011;69234;47.446;21.636;2023-04-25T01:53:32;30.40;;;30.40;;
79751;SDS011;69234;47.446;21.636;2023-04-25T01:54:04;30.30;;;30.30;;
79751;SDS011;69234;47.446;21.636;2023-04-25T01:54:35;30.90;;;30.90;;
79751;SDS011;69234;47.446;21.636;2023-04-25T01:55:07;29.90;;;29.90;;
79751;SDS011;69234;47.446;21.636;2023-04-25T01:55:40;29.67;;;29.63;;
79751;SDS011;69234;47.446;21.636;2023-04-25T01:56:15;30.90;;;30.87;;
79751;SDS011;69234;47.446;21.636;2023-04-25T01:56:49;30.27;;;30.13;;
79751;SDS011;69234;47.446;21.636;2023-04-25T01:57:22;29.47;;;29.43;;
79751;SDS011;69234;47.446;21.636;2023-04-25T01:57:53;29.40;;;29.37;;
79751;SDS011;69234;47.446;21.636;2023-04-25T01:58:30;30.63;;;30.53;;
79751;SDS011;69234;47.446;21.636;2023-04-25T01:59:06;30.03;;;30.03;;
79751;SDS011;69234;47.446;21.636;2023-04-25T02:00:00;30.33;;;30.33;;
79751;SDS011;69234;47.446;21.636;2023-04-25T02:00:43;30.83;;;30.80;;
79751;SDS011;69234;47.446;21.636;2023-04-25T02:01:14;28.87;;;28.83;;
79751;SDS011;69234;47.446;21.636;2023-04-25T02:01:51;29.47;;;29.40;;
79751;SDS011;69234;47.446;21.636;2023-04-25T02:02:29;29.47;;;29.30;;
79751;SDS011;69234;47.446;21.636;2023-04-25T02:03:00;29.57;;;29.53;;
79751;SDS011;69234;47.446;21.636;2023-04-25T02:03:34;30.30;;;30.30;;
79751;SDS011;69234;47.446;21.636;2023-04-25T02:04:08;28.30;;;28.30;;
79751;SDS011;69234;47.446;21.636;2023-04-25T02:04:40;29.37;;;29.37;;
79751;SDS011;69234;47.446;21.636;2023-04-25T02:05:12;28.77;;;28.77;;
79751;SDS011;69234;47.446;21.636;2023-04-25T02:05:43;28.83;;;28.80;;
79751;SDS011;69234;47.446;21.636;2023-04-25T02:06:16;29.47;;;29.47;;
79751;SDS011;69234;47.446;21.636;2023-04-25T02:06:49;28.93;;;28.93;;
79751;SDS011;69234;47.446;21.636;2023-04-25T02:07:20;29.20;;;29.20;;
79751;SDS011;69234;47.446;21.636;2023-04-25T02:07:54;28.47;;;28.47;;
79751;SDS011;69234;47.446;21.636;2023-04-25T02:08:28;30.77;;;30.13;;
79751;SDS011;69234;47.446;21.636;2023-04-25T02:09:00;30.27;;;30.27;;
79751;SDS011;69234;47.446;21.636;2023-04-25T02:09:31;28.87;;;28.87;;
79751;SDS011;69234;47.446;21.636;2023-04-25T02:10:02;29.17;;;29.07;;
79751;SDS011;69234;47.446;21.636;2023-04-25T02:10:36;28.40;;;28.40;;
79751;SDS011;69234;47.446;21.636;2023-04-25T02:11:18;28.10;;;28.10;;
79751;SDS011;69234;47.446;21.636;2023-04-25T02:12:04;27.93;;;27.93;;
79751;SDS011;69234;47.446;21.636;2023-04-25T02:12:45;28.83;;;28.77;;
79751;SDS011;69234;47.446;21.636;2023-04-25T02:13:33;29.20;;;29.13;;
79751;SDS011;69234;47.446;21.636;2023-04-25T02:14:22;29.23;;;29.23;;
79751;SDS011;69234;47.446;21.636;2023-04-25T02:15:12;28.57;;;28.47;;
79751;SDS011;69234;47.446;21.636;2023-04-25T02:15:47;28.47;;;28.47;;
79751;SDS011;69234;47.446;21.636;2023-04-25T02:16:19;29.43;;;29.43;;
79751;SDS011;69234;47.446;21.636;2023-04-25T02:16:50;29.07;;;29.07;;
79751;SDS011;69234;47.446;21.636;2023-04-25T02:17:22;28.93;;;28.93;;
79751;SDS011;69234;47.446;21.636;2023-04-25T02:17:52;29.63;;;29.60;;
79751;SDS011;69234;47.446;21.636;2023-04-25T02:18:23;29.83;;;29.30;;
79751;SDS011;69234;47.446;21.636;2023-04-25T02:18:56;30.30;;;29.67;;
79751;SDS011;69234;47.446;21.636;2023-04-25T02:19:27;29.87;;;29.87;;
79751;SDS011;69234;47.446;21.636;2023-04-25T02:19:57;30.07;;;30.07;;
79751;SDS011;69234;47.446;21.636;2023-04-25T02:20:29;29.40;;;29.40;;
79751;SDS011;69234;47.446;21.636;2023-04-25T02:21:00;29.20;;;29.13;;
79751;SDS011;69234;47.446;21.636;2023-04-25T02:21:32;29.87;;;29.87;;
79751;SDS011;69234;47.446;21.636;2023-04-25T02:22:05;30.97;;;30.60;;
79751;SDS011;69234;47.446;21.636;2023-04-25T02:22:36;31.63;;;31.57;;
79751;SDS011;69234;47.446;21.636;2023-04-25T02:23:09;30.80;;;30.80;;
79751;SDS011;69234;47.446;21.636;2023-04-25T02:23:40;28.43;;;28.43;;
79751;SDS011;69234;47.446;21.636;2023-04-25T02:24:11;28.53;;;28.53;;
79751;SDS011;69234;47.446;21.636;2023-04-25T02:24:42;30.23;;;30.23;;
79751;SDS011;69234;47.446;21.636;2023-04-25T02:25:13;30.23;;;30.23;;
79751;SDS011;69234;47.446;21.636;2023-04-25T02:25:44;29.73;;;29.73;;
79751;SDS011;69234;47.446;21.636;2023-04-25T02:26:15;29.80;;;29.80;;
79751;SDS011;69234;47.446;21.636;2023-04-25T02:26:46;29.83;;;29.83;;
79751;SDS011;69234;47.446;21.636;2023-04-25T02:27:17;28.93;;;28.87;;
79751;SDS011;69234;47.446;21.636;2023-04-25T02:27:47;29.17;;;29.17;;
79751;SDS011;69234;47.446;21.636;2023-04-25T02:28:19;29.83;;;29.83;;
79751;SDS011;69234;47.446;21.636;2023-04-25T02:28:49;30.80;;;30.67;;
79751;SDS011;69234;47.446;21.636;2023-04-25T02:29:23;30.27;;;30.27;;
79751;SDS011;69234;47.446;21.636;2023-04-25T02:29:54;30.43;;;30.43;;
79751;SDS011;69234;47.446;21.636;2023-04-25T02:30:24;29.33;;;29.33;;
79751;SDS011;69234;47.446;21.636;2023-04-25T02:30:55;29.80;;;29.43;;
79751;SDS011;69234;47.446;21.636;2023-04-25T02:31:28;30.83;;;30.80;;
79751;SDS011;69234;47.446;21.636;2023-04-25T02:31:58;30.57;;;30.57;;
79751;SDS011;69234;47.446;21.636;2023-04-25T02:32:30;30.33;;;30.33;;
79751;SDS011;69234;47.446;21.636;2023-04-25T02:33:01;30.57;;;30.57;;
79751;SDS011;69234;47.446;21.636;2023-04-25T02:33:33;30.33;;;30.27;;
79751;SDS011;69234;47.446;21.636;2023-04-25T02:34:04;31.83;;;31.20;;
79751;SDS011;69234;47.446;21.636;2023-04-25T02:34:35;30.37;;;30.33;;
79751;SDS011;69234;47.446;21.636;2023-04-25T02:35:06;30.77;;;30.77;;
79751;SDS011;69234;47.446;21.636;2023-04-25T02:35:38;31.30;;;31.17;;
79751;SDS011;69234;47.446;21.636;2023-04-25T02:36:08;31.23;;;31.17;;
79751;SDS011;69234;47.446;21.636;2023-04-25T02:36:39;31.83;;;31.73;;
79751;SDS011;69234;47.446;21.636;2023-04-25T02:37:12;32.07;;;32.03;;
79751;SDS011;69234;47.446;21.636;2023-04-25T02:37:42;31.47;;;31.30;;
79751;SDS011;69234;47.446;21.636;2023-04-25T02:38:13;30.73;;;30.63;;
79751;SDS011;69234;47.446;21.636;2023-04-25T02:38:44;30.17;;;30.17;;
79751;SDS011;69234;47.446;21.636;2023-04-25T02:39:15;30.17;;;30.10;;
79751;SDS011;69234;47.446;21.636;2023-04-25T02:39:46;31.13;;;31.13;;
79751;SDS011;69234;47.446;21.636;2023-04-25T02:40:17;31.93;;;31.93;;
79751;SDS011;69234;47.446;21.636;2023-04-25T02:40:48;32.73;;;32.17;;
79751;SDS011;69234;47.446;21.636;2023-04-25T02:41:18;32.47;;;32.47;;
79751;SDS011;69234;47.446;21.636;2023-04-25T02:41:51;31.27;;;31.27;;
79751;SDS011;69234;47.446;21.636;2023-04-25T02:42:22;31.43;;;31.37;;
79751;SDS011;69234;47.446;21.636;2023-04-25T02:42:53;31.53;;;31.50;;
79751;SDS011;69234;47.446;21.636;2023-04-25T02:43:25;31.67;;;31.67;;
79751;SDS011;69234;47.446;21.636;2023-04-25T02:43:56;33.27;;;33.27;;
79751;SDS011;69234;47.446;21.636;2023-04-25T02:44:26;31.83;;;31.83;;
79751;SDS011;69234;47.446;21.636;2023-04-25T02:44:57;31.40;;;31.40;;
79751;SDS011;69234;47.446;21.636;2023-04-25T02:45:28;33.57;;;33.57;;
79751;SDS011;69234;47.446;21.636;2023-04-25T02:46:00;34.30;;;34.30;;
79751;SDS011;69234;47.446;21.636;2023-04-25T02:46:30;33.10;;;33.10;;
79751;SDS011;69234;47.446;21.636;2023-04-25T02:47:03;33.10;;;33.10;;
79751;SDS011;69234;47.446;21.636;2023-04-25T02:47:34;33.10;;;33.03;;
79751;SDS011;69234;47.446;21.636;2023-04-25T02:48:05;32.60;;;32.60;;
79751;SDS011;69234;47.446;21.636;2023-04-25T02:48:36;32.43;;;32.43;;
79751;SDS011;69234;47.446;21.636;2023-04-25T02:49:06;33.67;;;33.67;;
79751;SDS011;69234;47.446;21.636;2023-04-25T02:49:38;33.17;;;33.17;;
79751;SDS011;69234;47.446;21.636;2023-04-25T02:50:09;31.63;;;31.63;;
79751;SDS011;69234;47.446;21.636;2023-04-25T02:50:40;31.77;;;31.77;;
79751;SDS011;69234;47.446;21.636;2023-04-25T02:51:10;32.17;;;32.17;;
79751;SDS011;69234;47.446;21.636;2023-04-25T02:51:41;32.10;;;32.10;;
79751;SDS011;69234;47.446;21.636;2023-04-25T02:52:12;31.93;;;31.93;;
79751;SDS011;69234;47.446;21.636;2023-04-25T02:52:43;32.87;;;32.87;;
79751;SDS011;69234;47.446;21.636;2023-04-25T02:53:22;32.30;;;32.30;;
79751;SDS011;69234;47.446;21.636;2023-04-25T02:53:55;31.80;;;31.80;;
79751;SDS011;69234;47.446;21.636;2023-04-25T02:54:26;33.10;;;33.00;;
79751;SDS011;69234;47.446;21.636;2023-04-25T02:54:56;34.53;;;33.50;;
79751;SDS011;69234;47.446;21.636;2023-04-25T02:55:28;32.00;;;31.93;;
79751;SDS011;69234;47.446;21.636;2023-04-25T02:56:00;31.30;;;31.30;;
79751;SDS011;69234;47.446;21.636;2023-04-25T02:56:31;31.80;;;31.57;;
79751;SDS011;69234;47.446;21.636;2023-04-25T02:57:02;31.90;;;31.50;;
79751;SDS011;69234;47.446;21.636;2023-04-25T02:57:39;31.87;;;31.27;;
79751;SDS011;69234;47.446;21.636;2023-04-25T02:58:10;31.00;;;30.97;;
79751;SDS011;69234;47.446;21.636;2023-04-25T02:58:49;31.53;;;31.53;;
79751;SDS011;69234;47.446;21.636;2023-04-25T02:59:20;31.73;;;31.73;;
79751;SDS011;69234;47.446;21.636;2023-04-25T02:59:50;31.63;;;31.63;;
79751;SDS011;69234;47.446;21.636;2023-04-25T03:00:21;32.07;;;32.07;;
79751;SDS011;69234;47.446;21.636;2023-04-25T03:00:53;31.97;;;31.83;;
79751;SDS011;69234;47.446;21.636;2023-04-25T03:01:24;33.10;;;32.67;;
79751;SDS011;69234;47.446;21.636;2023-04-25T03:01:55;32.67;;;32.47;;
79751;SDS011;69234;47.446;21.636;2023-04-25T03:02:26;31.23;;;31.23;;
79751;SDS011;69234;47.446;21.636;2023-04-25T03:02:57;31.53;;;31.53;;
79751;SDS011;69234;47.446;21.636;2023-04-25T03:03:27;32.23;;;32.23;;
79751;SDS011;69234;47.446;21.636;2023-04-25T03:03:58;32.77;;;32.67;;
79751;SDS011;69234;47.446;21.636;2023-04-25T03:04:29;33.63;;;33.53;;
79751;SDS011;69234;47.446;21.636;2023-04-25T03:05:00;33.47;;;33.47;;
79751;SDS011;69234;47.446;21.636;2023-04-25T03:05:32;33.87;;;33.27;;